createdAt,value
2019-05-01T00:00:26.905Z,99.99
2019-05-01T00:01:26.863Z,99.99
2019-05-01T00:02:26.838Z,99.99
2019-05-01T00:03:26.814Z,99.99
2019-05-01T00:04:26.779Z,99.99
2019-05-01T00:05:26.826Z,99.99
2019-05-01T00:06:26.728Z,99.99
2019-05-01T00:07:26.685Z,99.99
2019-05-01T00:08:26.667Z,99.99
2019-05-01T00:09:26.730Z,99.99
2019-05-01T00:10:26.610Z,99.99
2019-05-01T00:11:26.590Z,99.99
2019-05-01T00:12:26.556Z,99.99
2019-05-01T00:13:26.528Z,99.99
2019-05-01T00:14:26.498Z,99.99
2019-05-01T00:15:26.472Z,99.99
2019-05-01T00:16:26.493Z,99.99
2019-05-01T00:17:27.820Z,99.99
2019-05-01T00:18:26.429Z,99.99
2019-05-01T00:19:26.364Z,99.99
2019-05-01T00:20:26.422Z,99.99
2019-05-01T00:21:26.301Z,99.99
2019-05-01T00:22:26.270Z,99.99
2019-05-01T00:23:26.250Z,99.99
2019-05-01T00:24:26.246Z,99.99
2019-05-01T00:25:26.185Z,99.99
2019-05-01T00:26:26.163Z,99.99
2019-05-01T00:27:34.736Z,99.99
2019-05-01T00:28:26.098Z,99.99
2019-05-01T00:29:32.693Z,99.99
2019-05-01T00:30:29.969Z,99.99
2019-05-01T00:31:28.110Z,99.99
2019-05-01T00:32:25.988Z,99.99
2019-05-01T00:33:26.067Z,99.99
2019-05-01T00:34:25.929Z,99.99
2019-05-01T00:35:28.019Z,99.99
2019-05-01T00:36:25.882Z,99.99
2019-05-01T00:38:25.843Z,99.99
2019-05-01T00:39:32.764Z,99.99
2019-05-01T00:40:25.760Z,99.99
2019-05-01T00:41:25.748Z,99.99
2019-05-01T00:42:26.745Z,99.99
2019-05-01T00:43:25.680Z,99.99
2019-05-01T00:44:27.679Z,99.99
2019-05-01T00:45:25.626Z,99.99
2019-05-01T00:46:26.671Z,99.99
2019-05-01T00:47:25.563Z,99.99
2019-05-01T00:48:46.651Z,99.99
2019-05-01T00:49:25.594Z,99.99
2019-05-01T00:50:40.210Z,99.99
2019-05-01T00:51:25.453Z,99.99
2019-05-01T00:52:25.483Z,99.99
2019-05-01T00:53:25.403Z,99.99
2019-05-01T00:54:27.439Z,99.99
2019-05-01T00:55:25.336Z,99.99
2019-05-01T00:56:25.407Z,99.99
2019-05-01T00:57:25.277Z,99.99
2019-05-01T00:58:25.314Z,99.99
2019-05-01T00:59:25.227Z,99.99
2019-05-01T01:00:26.334Z,99.99
2019-05-01T01:01:25.167Z,99.99
2019-05-01T01:02:25.251Z,99.99
2019-05-01T01:03:25.112Z,99.99
2019-05-01T01:04:25.171Z,99.99
2019-05-01T01:05:25.126Z,99.99
2019-05-01T01:06:27.110Z,99.99
2019-05-01T01:07:25.007Z,99.99
2019-05-01T01:08:25.078Z,99.99
2019-05-01T01:09:24.940Z,99.99
2019-05-01T01:10:26.937Z,99.99
2019-05-01T01:11:24.886Z,99.99
2019-05-01T01:12:24.847Z,99.99
2019-05-01T01:13:24.914Z,99.99
2019-05-01T01:14:24.798Z,99.99
2019-05-01T01:15:24.820Z,99.99
2019-05-01T01:16:24.740Z,99.99
2019-05-01T01:17:31.692Z,99.99
2019-05-01T01:18:24.677Z,99.99
2019-05-01T01:19:25.767Z,99.99
2019-05-01T01:20:24.623Z,99.99
2019-05-01T01:21:26.703Z,99.99
2019-05-01T01:22:24.595Z,99.99
2019-05-01T01:23:24.596Z,99.99
2019-05-01T01:24:24.529Z,99.99
2019-05-01T01:25:39.233Z,99.99
2019-05-01T01:26:24.457Z,99.99
2019-05-01T01:27:31.258Z,99.99
2019-05-01T01:28:24.394Z,99.99
2019-05-01T01:29:26.430Z,99.99
2019-05-01T01:30:24.363Z,99.99
2019-05-01T01:31:25.423Z,99.99
2019-05-01T01:32:24.285Z,99.99
2019-05-01T01:33:24.308Z,99.99
2019-05-01T01:34:24.228Z,99.99
2019-05-01T01:35:24.220Z,99.99
2019-05-01T01:36:24.159Z,99.99
2019-05-01T01:37:26.169Z,99.99
2019-05-01T01:38:24.116Z,99.99
2019-05-01T01:39:25.206Z,99.99
2019-05-01T01:40:24.055Z,99.99
2019-05-01T01:41:24.046Z,99.99
2019-05-01T01:42:24.111Z,99.99
2019-05-01T01:43:26.027Z,99.99
2019-05-01T01:44:23.933Z,99.99
2019-05-01T01:46:23.885Z,99.99
2019-05-01T01:47:24.915Z,99.99
2019-05-01T01:48:23.821Z,99.99
2019-05-01T01:49:24.862Z,99.99
2019-05-01T01:50:23.766Z,99.99
2019-05-01T01:51:30.727Z,99.99
2019-05-01T01:52:23.715Z,99.99
2019-05-01T01:53:30.213Z,99.99
2019-05-01T01:54:23.656Z,99.99
2019-05-01T01:55:24.699Z,99.99
2019-05-01T01:56:23.587Z,99.99
2019-05-01T01:57:30.243Z,99.99
2019-05-01T01:58:23.540Z,99.99
2019-05-01T01:59:23.505Z,99.99
2019-05-01T02:00:23.476Z,99.99
2019-05-01T02:01:23.520Z,99.99
2019-05-01T02:02:23.417Z,99.99
2019-05-01T02:03:23.500Z,99.99
2019-05-01T02:04:23.372Z,99.99
2019-05-01T02:05:23.412Z,99.99
2019-05-01T02:06:23.335Z,99.99
2019-05-01T02:07:23.301Z,99.99
2019-05-01T02:08:23.244Z,99.99
2019-05-01T02:09:25.258Z,99.99
2019-05-01T02:10:23.280Z,99.99
2019-05-01T02:11:23.227Z,99.99
2019-05-01T02:12:23.129Z,99.99
2019-05-01T02:13:24.160Z,99.99
2019-05-01T02:14:23.079Z,99.99
2019-05-01T02:15:23.162Z,99.99
2019-05-01T02:16:23.042Z,99.99
2019-05-01T02:17:29.718Z,99.99
2019-05-01T02:18:22.962Z,99.99
2019-05-01T02:19:25.049Z,99.99
2019-05-01T02:20:22.897Z,99.99
2019-05-01T02:22:22.844Z,99.99
2019-05-01T02:23:22.897Z,99.99
2019-05-01T02:24:22.782Z,99.99
2019-05-01T02:25:38.786Z,99.99
2019-05-01T02:26:22.731Z,99.99
2019-05-01T02:27:29.779Z,99.99
2019-05-01T02:28:22.666Z,99.99
2019-05-01T02:29:29.334Z,99.99
2019-05-01T02:30:22.622Z,99.99
2019-05-01T02:31:29.298Z,99.99
2019-05-01T02:33:22.531Z,99.99
2019-05-01T02:34:22.568Z,99.99
2019-05-01T02:35:22.473Z,99.99
2019-05-01T02:37:22.453Z,99.99
2019-05-01T02:38:22.385Z,99.99
2019-05-01T02:39:22.440Z,99.99
2019-05-01T02:40:22.433Z,99.99
2019-05-01T02:41:46.197Z,99.99
2019-05-01T02:42:22.260Z,99.99
2019-05-01T02:44:22.217Z,99.99
2019-05-01T02:45:38.746Z,99.99
2019-05-01T02:46:22.151Z,99.99
2019-05-01T02:47:24.242Z,99.99
2019-05-01T02:48:22.093Z,99.99
2019-05-01T02:49:36.806Z,99.99
2019-05-01T02:50:22.036Z,99.99
2019-05-01T02:51:36.720Z,99.99
2019-05-01T02:52:21.995Z,99.99
2019-05-01T02:53:30.786Z,99.99
2019-05-01T02:54:21.926Z,99.99
2019-05-01T02:55:23.948Z,99.99
2019-05-01T02:56:21.872Z,99.99
2019-05-01T02:57:22.930Z,99.99
2019-05-01T02:58:21.808Z,99.99
2019-05-01T03:06:42.518Z,99.99
2019-05-01T03:07:54.344Z,99.99
2019-05-01T03:08:53.523Z,99.99
2019-05-01T03:09:42.379Z,99.99
2019-05-01T03:10:53.633Z,99.99
2019-05-01T03:11:53.543Z,99.99
2019-05-01T03:12:42.296Z,99.99
2019-05-01T03:13:53.052Z,99.99
2019-05-01T03:14:52.942Z,99.99
2019-05-01T03:15:42.298Z,99.99
2019-05-01T03:16:42.190Z,99.99
2019-05-01T03:17:52.962Z,99.99
2019-05-01T03:18:42.132Z,99.99
2019-05-01T03:19:52.973Z,99.99
2019-05-01T03:20:52.879Z,99.99
2019-05-01T03:21:42.030Z,99.99
2019-05-01T03:22:53.918Z,99.99
2019-05-01T03:23:52.914Z,99.99
2019-05-01T03:24:41.966Z,99.99
2019-05-01T03:25:52.928Z,99.99
2019-05-01T03:26:53.131Z,99.99
2019-05-01T03:27:41.882Z,99.99
2019-05-01T03:28:53.114Z,99.99
2019-05-01T03:29:53.060Z,99.99
2019-05-01T03:30:41.800Z,99.99
2019-05-01T03:32:14.189Z,99.99
2019-05-01T03:32:52.554Z,99.99
2019-05-01T03:33:41.702Z,99.99
2019-05-01T03:34:53.278Z,99.99
2019-05-01T03:35:52.441Z,99.99
2019-05-01T03:36:41.614Z,99.99
2019-05-01T03:37:52.544Z,99.99
2019-05-01T03:38:52.453Z,99.99
2019-05-01T03:39:41.532Z,99.99
2019-05-01T03:40:52.473Z,99.99
2019-05-01T03:41:52.371Z,99.99
2019-05-01T03:42:41.439Z,99.99
2019-05-01T03:43:52.486Z,99.99
2019-05-01T03:44:52.394Z,99.99
2019-05-01T03:45:41.357Z,99.99
2019-05-01T03:46:52.398Z,99.99
2019-05-01T03:47:52.112Z,99.99
2019-05-01T03:48:41.284Z,99.99
2019-05-01T03:51:13.686Z,99.99
2019-05-01T03:52:13.659Z,99.99
2019-05-01T03:54:07.460Z,99.99
2019-05-01T03:55:07.433Z,99.99
2019-05-01T03:56:07.401Z,99.99
2019-05-01T03:57:07.375Z,99.99
2019-05-01T03:58:07.349Z,99.99
2019-05-01T03:59:07.305Z,99.99
2019-05-01T04:00:07.285Z,99.99
2019-05-01T04:01:07.250Z,99.99
2019-05-01T04:02:07.214Z,99.99
2019-05-01T04:03:07.192Z,99.99
2019-05-01T04:04:07.174Z,99.99
2019-05-01T04:05:07.131Z,99.99
2019-05-01T04:06:07.178Z,99.99
2019-05-01T04:07:07.093Z,99.99
2019-05-01T04:08:07.041Z,99.99
2019-05-01T04:09:07.040Z,99.99
2019-05-01T04:10:07.020Z,99.99
2019-05-01T04:11:06.963Z,99.99
2019-05-01T04:12:07.024Z,99.99
2019-05-01T04:13:06.907Z,99.99
2019-05-01T04:14:06.871Z,99.99
2019-05-01T04:15:06.851Z,99.99
2019-05-01T04:16:06.827Z,99.99
2019-05-01T04:17:06.782Z,99.99
2019-05-01T04:18:06.769Z,99.99
2019-05-01T04:19:06.734Z,99.99
2019-05-01T04:20:06.726Z,99.99
2019-05-01T04:21:06.679Z,99.99
2019-05-01T04:22:06.677Z,99.99
2019-05-01T04:23:06.612Z,99.99
2019-05-01T04:24:06.590Z,99.99
2019-05-01T04:25:06.601Z,99.99
2019-05-01T04:26:06.536Z,99.99
2019-05-01T04:27:06.507Z,99.99
2019-05-01T04:28:06.462Z,99.99
2019-05-01T04:29:06.437Z,99.99
2019-05-01T04:30:06.431Z,99.99
2019-05-01T04:31:06.376Z,99.99
2019-05-01T04:32:06.351Z,99.99
2019-05-01T04:33:06.322Z,99.99
2019-05-01T04:34:06.297Z,99.99
2019-05-01T04:35:06.273Z,99.99
2019-05-01T04:36:13.067Z,99.99
2019-05-01T04:37:08.096Z,99.99
2019-05-01T04:38:08.314Z,99.99
2019-05-01T04:39:06.148Z,99.99
2019-05-01T04:40:06.119Z,99.99
2019-05-01T04:41:06.105Z,99.99
2019-05-01T04:42:06.066Z,99.99
2019-05-01T04:43:06.066Z,99.99
2019-05-01T04:44:06.008Z,99.99
2019-05-01T04:45:06.075Z,99.99
2019-05-01T04:46:05.938Z,99.99
2019-05-01T04:47:05.988Z,99.99
2019-05-01T04:48:05.892Z,99.99
2019-05-01T04:49:05.893Z,99.99
2019-05-01T04:50:05.826Z,99.99
2019-05-01T04:51:05.903Z,99.99
2019-05-01T04:52:05.777Z,99.99
2019-05-01T04:53:05.746Z,99.99
2019-05-01T04:54:05.706Z,99.99
2019-05-01T04:55:05.686Z,99.99
2019-05-01T04:56:05.652Z,99.99
2019-05-01T04:57:05.636Z,99.99
2019-05-01T04:58:05.598Z,99.99
2019-05-01T04:59:14.343Z,99.99
2019-05-01T05:00:05.531Z,99.99
2019-05-01T05:01:06.587Z,99.99
2019-05-01T05:02:05.506Z,99.99
2019-05-01T05:03:05.634Z,99.99
2019-05-01T05:04:05.423Z,99.99
2019-05-01T05:06:05.358Z,99.99
2019-05-01T05:07:05.344Z,99.99
2019-05-01T05:08:12.249Z,99.99
2019-05-01T05:09:05.277Z,99.99
2019-05-01T05:10:05.320Z,99.99
2019-05-01T05:11:05.217Z,99.99
2019-05-01T05:12:05.228Z,99.99
2019-05-01T05:13:05.184Z,99.99
2019-05-01T05:22:02.402Z,99.99
2019-05-01T05:23:02.427Z,99.99
2019-05-01T05:24:02.326Z,99.99
2019-05-01T05:25:02.328Z,99.99
2019-05-01T05:26:02.283Z,99.99
2019-05-01T05:27:02.343Z,99.99
2019-05-01T05:28:02.230Z,99.99
2019-05-01T05:29:02.260Z,99.99
2019-05-01T05:30:02.155Z,99.99
2019-05-01T05:31:02.173Z,99.99
2019-05-01T05:32:02.098Z,99.99
2019-05-01T05:33:02.089Z,99.99
2019-05-01T05:34:02.040Z,99.99
2019-05-01T05:36:01.976Z,99.99
2019-05-01T05:37:11.014Z,99.99
2019-05-01T05:38:01.917Z,99.99
2019-05-01T05:39:10.533Z,99.99
2019-05-01T05:40:01.866Z,99.99
2019-05-01T05:41:03.879Z,99.99
2019-05-01T05:42:01.805Z,99.99
2019-05-01T05:43:09.518Z,99.99
2019-05-01T05:44:01.754Z,99.99
2019-05-01T05:45:10.448Z,99.99
2019-05-01T05:46:01.689Z,99.99
2019-05-01T05:47:17.453Z,99.99
2019-05-01T05:48:01.624Z,99.99
2019-05-01T05:49:25.450Z,99.99
2019-05-01T05:50:01.582Z,99.99
2019-05-01T05:51:01.609Z,99.99
2019-05-01T05:52:01.510Z,99.99
2019-05-01T05:53:26.503Z,99.99
2019-05-01T05:54:01.455Z,99.99
2019-05-01T05:55:01.427Z,99.99
2019-05-01T05:56:02.456Z,99.99
2019-05-01T05:57:01.381Z,99.99
2019-05-01T05:59:01.317Z,99.99
2019-05-01T06:01:01.245Z,99.99
2019-05-01T06:02:01.213Z,99.99
2019-05-01T06:04:01.161Z,99.99
2019-05-01T06:05:01.234Z,99.99
2019-05-01T06:06:01.123Z,99.99
2019-05-01T06:07:01.077Z,99.99
2019-05-01T06:08:01.049Z,99.99
2019-05-01T06:09:01.019Z,99.99
2019-05-01T06:10:00.983Z,99.99
2019-05-01T06:11:01.072Z,99.99
2019-05-01T06:12:05.023Z,99.99
2019-05-01T06:13:01.027Z,99.99
2019-05-01T06:14:00.869Z,99.99
2019-05-01T06:15:02.446Z,99.99
2019-05-01T06:16:00.810Z,99.99
2019-05-01T06:17:00.840Z,99.99
2019-05-01T06:18:04.161Z,99.99
2019-05-01T06:19:00.736Z,99.99
2019-05-01T06:20:00.694Z,99.99
2019-05-01T06:21:02.153Z,99.99
2019-05-01T06:22:04.930Z,99.99
2019-05-01T06:23:00.617Z,99.99
2019-05-01T06:24:06.302Z,99.99
2019-05-01T06:25:00.551Z,99.99
2019-05-01T06:26:02.483Z,99.99
2019-05-01T06:27:00.504Z,99.99
2019-05-01T06:28:00.524Z,99.99
2019-05-01T06:29:01.971Z,99.99
2019-05-01T06:30:00.515Z,99.99
2019-05-01T06:31:00.368Z,99.99
2019-05-01T06:32:00.431Z,99.99
2019-05-01T06:33:04.197Z,99.99
2019-05-01T06:34:00.281Z,99.99
2019-05-01T06:35:03.091Z,99.99
2019-05-01T06:36:00.234Z,99.99
2019-05-01T06:37:00.243Z,99.99
2019-05-01T06:38:00.731Z,99.99
2019-05-01T06:39:02.254Z,99.99
2019-05-01T06:40:00.121Z,99.99
2019-05-01T06:41:00.181Z,99.99
2019-05-01T06:42:00.076Z,99.99
2019-05-01T06:43:01.106Z,99.99
2019-05-01T06:44:02.209Z,99.99
2019-05-01T06:45:16.777Z,99.99
2019-05-01T06:46:00.043Z,99.99
2019-05-01T06:47:03.261Z,99.99
2019-05-01T06:47:59.877Z,99.99
2019-05-01T06:48:59.911Z,99.99
2019-05-01T06:50:01.226Z,99.99
2019-05-01T06:51:07.508Z,99.99
2019-05-01T06:51:59.803Z,99.99
2019-05-01T06:53:06.729Z,99.99
2019-05-01T06:53:59.702Z,99.99
2019-05-01T06:54:59.739Z,99.99
2019-05-01T06:55:59.645Z,99.99
2019-05-01T06:57:07.539Z,99.99
2019-05-01T06:57:59.592Z,99.99
2019-05-01T06:59:14.535Z,99.99
2019-05-01T07:00:03.121Z,99.99
2019-05-01T07:00:59.498Z,99.99
2019-05-01T07:02:00.251Z,99.99
2019-05-01T07:02:59.444Z,99.99
2019-05-01T07:04:03.862Z,99.99
2019-05-01T07:04:59.393Z,99.99
2019-05-01T07:06:13.361Z,99.99
2019-05-01T07:07:01.894Z,99.99
2019-05-01T07:07:59.336Z,99.99
2019-05-01T07:08:59.288Z,99.99
2019-05-01T07:10:08.060Z,99.99
2019-05-01T07:10:59.212Z,99.99
2019-05-01T07:11:59.267Z,99.99
2019-05-01T07:12:59.911Z,99.99
2019-05-01T07:14:11.220Z,99.99
2019-05-01T07:14:59.145Z,99.99
2019-05-01T07:16:03.067Z,99.99
2019-05-01T07:16:59.071Z,99.99
2019-05-01T07:18:00.144Z,99.99
2019-05-01T07:19:05.735Z,99.99
2019-05-01T07:20:01.091Z,99.99
2019-05-01T07:20:58.945Z,99.99
2019-05-01T07:22:01.819Z,99.99
2019-05-01T07:22:58.907Z,99.99
2019-05-01T07:24:07.559Z,99.99
2019-05-01T07:25:03.383Z,99.99
2019-05-01T07:25:58.870Z,99.99
2019-05-01T07:26:59.855Z,99.99
2019-05-01T07:27:59.755Z,99.99
2019-05-01T07:28:58.707Z,99.99
2019-05-01T07:29:58.777Z,99.99
2019-05-01T07:30:58.678Z,99.99
2019-05-01T07:32:01.642Z,99.99
2019-05-01T07:32:58.600Z,99.99
2019-05-01T07:33:58.594Z,99.99
2019-05-01T07:35:02.082Z,99.99
2019-05-01T07:35:58.608Z,99.99
2019-05-01T07:36:58.498Z,99.99
2019-05-01T07:38:02.260Z,99.99
2019-05-01T07:38:58.415Z,99.99
2019-05-01T07:39:58.421Z,99.99
2019-05-01T07:40:58.899Z,99.99
2019-05-01T07:41:58.436Z,99.99
2019-05-01T07:42:58.337Z,99.99
2019-05-01T07:43:59.720Z,99.99
2019-05-01T07:44:58.224Z,99.99
2019-05-01T07:46:07.089Z,99.99
2019-05-01T07:46:58.209Z,99.99
2019-05-01T07:48:01.087Z,99.99
2019-05-01T07:48:58.154Z,99.99
2019-05-01T07:50:00.170Z,99.99
2019-05-01T07:51:01.843Z,99.99
2019-05-01T07:52:01.708Z,99.99
2019-05-01T07:52:58.018Z,99.99
2019-05-01T07:54:08.737Z,99.99
2019-05-01T07:54:57.939Z,99.99
2019-05-01T07:55:57.957Z,99.99
2019-05-01T07:56:58.653Z,99.99
2019-05-01T07:57:57.864Z,99.99
2019-05-01T07:58:58.982Z,99.99
2019-05-01T07:59:58.332Z,99.99
2019-05-01T08:00:58.880Z,99.99
2019-05-01T08:01:57.733Z,99.99
2019-05-01T08:02:57.758Z,99.99
2019-05-01T08:03:57.686Z,99.99
2019-05-01T08:04:59.739Z,99.99
2019-05-01T08:05:57.642Z,99.99
2019-05-01T08:06:58.690Z,99.99
2019-05-01T08:07:57.578Z,99.99
2019-05-01T08:08:57.551Z,99.99
2019-05-01T08:09:57.513Z,99.99
2019-05-01T08:10:59.821Z,99.99
2019-05-01T08:11:57.483Z,99.99
2019-05-01T08:13:00.340Z,99.99
2019-05-01T08:14:07.109Z,99.99
2019-05-01T08:14:57.370Z,99.99
2019-05-01T08:15:57.450Z,99.99
2019-05-01T08:16:57.381Z,99.99
2019-05-01T08:17:57.287Z,99.99
2019-05-01T08:18:59.003Z,99.99
2019-05-01T08:19:57.255Z,99.99
2019-05-01T08:20:57.219Z,99.99
2019-05-01T08:22:01.698Z,99.99
2019-05-01T08:22:57.159Z,99.99
2019-05-01T08:23:57.121Z,99.99
2019-05-01T08:24:58.763Z,99.99
2019-05-01T08:25:57.063Z,99.99
2019-05-01T08:26:57.179Z,99.99
2019-05-01T08:27:58.109Z,99.99
2019-05-01T08:28:57.140Z,99.99
2019-05-01T08:29:56.942Z,99.99
2019-05-01T08:30:57.095Z,99.99
2019-05-01T08:31:58.749Z,99.99
2019-05-01T08:32:56.906Z,99.99
2019-05-01T08:33:56.870Z,99.99
2019-05-01T08:35:00.381Z,99.99
2019-05-01T08:35:56.787Z,99.99
2019-05-01T08:36:56.959Z,99.99
2019-05-01T08:37:58.496Z,99.99
2019-05-01T08:38:56.885Z,99.99
2019-05-01T08:39:56.691Z,99.99
2019-05-01T08:40:56.858Z,99.99
2019-05-01T08:41:56.592Z,99.99
2019-05-01T08:42:56.774Z,99.99
2019-05-01T08:43:56.525Z,99.99
2019-05-01T08:44:59.858Z,99.99
2019-05-01T08:45:56.520Z,99.99
2019-05-01T08:46:56.607Z,99.99
2019-05-01T08:47:56.758Z,99.99
2019-05-01T08:48:56.438Z,99.99
2019-05-01T08:49:56.357Z,99.99
2019-05-01T08:51:11.060Z,99.99
2019-05-01T08:51:56.305Z,99.99
2019-05-01T08:53:34.078Z,99.99
2019-05-01T08:53:57.957Z,99.99
2019-05-01T08:54:56.269Z,99.99
2019-05-01T08:55:56.276Z,99.99
2019-05-01T08:56:57.976Z,99.99
2019-05-01T08:57:56.108Z,99.99
2019-05-01T08:58:56.192Z,99.99
2019-05-01T09:00:00.397Z,99.99
2019-05-01T09:00:56.097Z,99.99
2019-05-01T09:02:09.026Z,99.99
2019-05-01T09:03:07.902Z,99.99
2019-05-01T09:03:56.072Z,99.99
2019-05-01T09:05:02.529Z,99.99
2019-05-01T09:05:57.298Z,99.99
2019-05-01T09:06:55.894Z,99.99
2019-05-01T09:07:57.656Z,99.99
2019-05-01T09:08:55.805Z,99.99
2019-05-01T09:09:55.896Z,99.99
2019-05-01T09:11:00.280Z,99.99
2019-05-01T09:11:55.785Z,99.99
2019-05-01T09:12:55.700Z,99.99
2019-05-01T09:13:58.925Z,99.99
2019-05-01T09:14:55.632Z,99.99
2019-05-01T09:15:55.658Z,99.99
2019-05-01T09:16:55.592Z,99.99
2019-05-01T09:17:55.544Z,99.99
2019-05-01T09:18:55.630Z,99.99
2019-05-01T09:19:55.479Z,99.99
2019-05-01T09:20:55.482Z,99.99
2019-05-01T09:21:55.549Z,99.99
2019-05-01T09:22:55.427Z,99.99
2019-05-01T09:23:55.465Z,99.99
2019-05-01T09:24:59.895Z,99.99
2019-05-01T09:25:56.408Z,99.99
2019-05-01T09:26:55.289Z,99.99
2019-05-01T09:27:55.452Z,99.99
2019-05-01T09:28:55.254Z,99.99
2019-05-01T09:29:55.268Z,99.99
2019-05-01T09:31:01.372Z,99.99
2019-05-01T09:31:55.171Z,99.99
2019-05-01T09:32:55.576Z,99.99
2019-05-01T09:33:55.103Z,99.99
2019-05-01T09:34:58.035Z,99.99
2019-05-01T09:35:56.139Z,99.99
2019-05-01T09:36:55.971Z,99.99
2019-05-01T09:37:57.739Z,99.99
2019-05-01T09:38:54.952Z,99.99
2019-05-01T09:39:54.978Z,99.99
2019-05-01T09:40:54.917Z,99.99
2019-05-01T09:41:54.985Z,99.99
2019-05-01T09:42:58.968Z,99.99
2019-05-01T09:43:54.893Z,99.99
2019-05-01T09:44:54.772Z,99.99
2019-05-01T09:45:54.779Z,99.99
2019-05-01T09:46:54.723Z,99.99
2019-05-01T09:47:54.718Z,99.99
2019-05-01T09:48:54.653Z,99.99
2019-05-01T09:49:55.975Z,99.99
2019-05-01T09:50:54.598Z,99.99
2019-05-01T09:51:54.566Z,99.99
2019-05-01T09:52:55.164Z,99.99
2019-05-01T09:53:54.622Z,99.99
2019-05-01T09:54:54.520Z,99.99
2019-05-01T09:55:54.436Z,99.99
2019-05-01T09:56:54.439Z,99.99
2019-05-01T09:57:55.431Z,99.99
2019-05-01T09:58:54.375Z,99.99
2019-05-01T09:59:54.362Z,99.99
2019-05-01T10:00:54.346Z,99.99
2019-05-01T10:01:54.318Z,99.99
2019-05-01T10:02:54.737Z,99.99
2019-05-01T10:03:54.823Z,99.99
2019-05-01T10:04:54.178Z,99.99
2019-05-01T10:05:54.269Z,99.99
2019-05-01T10:06:54.224Z,99.99
2019-05-01T10:07:54.188Z,99.99
2019-05-01T10:08:54.081Z,99.99
2019-05-01T10:09:55.163Z,99.99
2019-05-01T10:10:54.021Z,99.99
2019-05-01T10:11:56.175Z,99.99
2019-05-01T10:12:54.011Z,99.99
2019-05-01T10:13:58.545Z,99.99
2019-05-01T10:14:53.907Z,99.99
2019-05-01T10:15:53.895Z,99.99
2019-05-01T10:16:53.856Z,99.99
2019-05-01T10:17:53.851Z,99.99
2019-05-01T10:18:53.948Z,99.99
2019-05-01T10:19:53.845Z,99.99
2019-05-01T10:20:53.735Z,99.99
2019-05-01T10:21:53.720Z,99.99
2019-05-01T10:22:53.728Z,99.99
2019-05-01T10:23:53.861Z,99.99
2019-05-01T10:24:53.702Z,99.99
2019-05-01T10:25:53.617Z,99.99
2019-05-01T10:26:55.237Z,99.99
2019-05-01T10:27:53.585Z,99.99
2019-05-01T10:28:53.519Z,99.99
2019-05-01T10:29:56.918Z,99.99
2019-05-01T10:30:53.519Z,99.99
2019-05-01T10:31:53.487Z,99.99
2019-05-01T10:32:58.010Z,99.99
2019-05-01T10:33:54.361Z,99.99
2019-05-01T10:34:53.353Z,99.99
2019-05-01T10:35:53.334Z,99.99
2019-05-01T10:36:54.596Z,99.99
2019-05-01T10:37:53.294Z,99.99
2019-05-01T10:38:53.223Z,99.99
2019-05-01T10:39:54.127Z,99.99
2019-05-01T10:40:53.188Z,99.99
2019-05-01T10:41:53.225Z,99.99
2019-05-01T10:42:53.096Z,99.99
2019-05-01T10:43:53.081Z,99.99
2019-05-01T10:44:53.062Z,99.99
2019-05-01T10:45:53.008Z,99.99
2019-05-01T10:46:52.990Z,99.99
2019-05-01T10:47:52.977Z,99.99
2019-05-01T10:48:52.924Z,99.99
2019-05-01T10:50:07.533Z,99.99
2019-05-01T10:50:52.887Z,99.99
2019-05-01T10:53:25.091Z,99.99
2019-05-01T12:05:36.703Z,99.99
2019-05-01T12:06:33.796Z,99.99
2019-05-01T12:07:33.894Z,99.99
2019-05-01T12:08:33.729Z,99.99
2019-05-01T12:09:33.704Z,99.99
2019-05-01T12:10:33.676Z,99.99
2019-05-01T12:11:34.651Z,99.99
2019-05-01T12:12:33.613Z,99.99
2019-05-01T12:18:16.893Z,99.99
2019-05-01T12:19:14.219Z,99.99
2019-05-01T12:20:14.169Z,99.99
2019-05-01T12:21:14.149Z,99.99
2019-05-01T12:22:14.095Z,99.99
2019-05-01T12:23:14.088Z,99.99
2019-05-01T12:24:14.052Z,99.99
2019-05-01T12:25:14.027Z,99.99
2019-05-01T12:26:13.993Z,99.99
2019-05-01T12:27:13.967Z,99.99
2019-05-01T12:28:13.932Z,99.99
2019-05-01T12:29:13.926Z,99.99
2019-05-01T12:30:13.878Z,99.99
2019-05-01T12:31:13.847Z,99.99
2019-05-01T12:32:13.827Z,99.99
2019-05-01T12:33:13.802Z,99.99
2019-05-01T12:34:13.772Z,99.99
2019-05-01T12:35:13.744Z,99.99
2019-05-01T12:36:13.708Z,99.99
2019-05-01T12:37:13.706Z,99.99
2019-05-01T12:38:13.651Z,99.99
2019-05-01T12:39:13.633Z,99.99
2019-05-01T12:40:13.593Z,99.99
2019-05-01T12:41:13.570Z,99.99
2019-05-01T12:42:13.536Z,99.99
2019-05-01T12:43:13.515Z,99.99
2019-05-01T12:44:13.479Z,99.99
2019-05-01T12:45:13.457Z,99.99
2019-05-01T12:46:13.437Z,99.99
2019-05-01T12:47:13.402Z,99.99
2019-05-01T12:48:13.466Z,99.99
2019-05-01T12:49:15.766Z,99.99
2019-05-01T12:50:13.328Z,99.99
2019-05-01T12:51:14.289Z,99.99
2019-05-01T12:52:13.255Z,99.99
2019-05-01T12:53:13.238Z,99.99
2019-05-01T12:54:13.203Z,99.99
2019-05-01T12:55:13.196Z,99.99
2019-05-01T12:56:13.155Z,99.99
2019-05-01T12:57:13.124Z,99.99
2019-05-01T12:58:13.098Z,99.99
2019-05-01T12:59:13.072Z,99.99
2019-05-01T13:00:13.052Z,99.99
2019-05-01T13:01:13.033Z,99.99
2019-05-01T13:02:12.988Z,99.99
2019-05-01T13:03:12.950Z,99.99
2019-05-01T13:04:12.931Z,99.99
2019-05-01T13:05:12.894Z,99.99
2019-05-01T13:06:14.407Z,99.99
2019-05-01T13:07:12.957Z,99.99
2019-05-01T13:08:12.808Z,99.99
2019-05-01T13:09:12.829Z,99.99
2019-05-01T13:10:12.759Z,99.99
2019-05-01T13:11:12.760Z,99.99
2019-05-01T13:12:12.688Z,99.99
2019-05-01T13:13:12.669Z,99.99
2019-05-01T13:14:12.654Z,99.99
2019-05-01T13:15:12.614Z,99.99
2019-05-01T13:16:12.602Z,99.99
2019-05-01T13:17:12.562Z,99.99
2019-05-01T13:18:12.528Z,99.99
2019-05-01T13:19:12.535Z,99.99
2019-05-01T13:20:12.535Z,99.99
2019-05-01T13:21:12.434Z,99.99
2019-05-01T13:22:12.467Z,99.99
2019-05-01T13:23:12.385Z,99.99
2019-05-01T13:24:14.364Z,99.99
2019-05-01T13:25:12.324Z,99.99
2019-05-01T13:26:12.309Z,99.99
2019-05-01T13:27:12.266Z,99.99
2019-05-01T13:28:12.244Z,99.99
2019-05-01T13:29:12.220Z,99.99
2019-05-01T13:30:12.215Z,99.99
2019-05-01T13:31:12.164Z,99.99
2019-05-01T13:32:12.140Z,99.99
2019-05-01T13:33:12.108Z,99.99
2019-05-01T13:34:12.090Z,99.99
2019-05-01T13:35:12.044Z,99.99
2019-05-01T13:36:13.097Z,99.99
2019-05-01T13:37:11.987Z,99.99
2019-05-01T13:38:11.961Z,99.99
2019-05-01T13:39:11.931Z,99.99
2019-05-01T13:40:12.903Z,99.99
2019-05-01T13:41:11.873Z,99.99
2019-05-01T13:42:11.845Z,99.99
2019-05-01T13:43:11.822Z,99.99
2019-05-01T13:44:11.815Z,99.99
2019-05-01T13:45:11.775Z,99.01
2019-05-01T13:46:11.749Z,98.33
2019-05-01T13:47:11.712Z,98.52
2019-05-01T13:48:11.679Z,97.56
2019-05-01T13:49:11.648Z,97.47
2019-05-01T13:50:11.627Z,98.28
2019-05-01T13:51:11.595Z,98.96
2019-05-01T13:52:11.575Z,99.99
2019-05-01T13:53:11.544Z,99.99
2019-05-01T13:54:11.515Z,99.99
2019-05-01T13:55:11.483Z,99.99
2019-05-01T13:56:11.464Z,99.99
2019-05-01T13:57:11.425Z,99.99
2019-05-01T13:58:11.449Z,99.99
2019-05-01T13:59:11.372Z,99.99
2019-05-01T14:00:11.365Z,99.99
2019-05-01T14:01:11.310Z,99.99
2019-05-01T14:02:17.932Z,99.99
2019-05-01T14:03:11.264Z,99.99
2019-05-01T14:04:11.230Z,99.99
2019-05-01T14:05:11.200Z,99.99
2019-05-01T14:06:19.924Z,99.58
2019-05-01T14:07:16.632Z,99.99
2019-05-01T14:08:11.212Z,99.91
2019-05-01T14:09:11.093Z,99.99
2019-05-01T14:10:12.071Z,99.99
2019-05-01T14:11:11.055Z,99.99
2019-05-01T14:12:12.036Z,99.99
2019-05-01T14:13:10.980Z,99.99
2019-05-01T14:14:12.955Z,99.99
2019-05-01T14:15:10.922Z,99.99
2019-05-01T14:16:10.894Z,99.99
2019-05-01T14:17:10.863Z,99.99
2019-05-01T14:18:11.850Z,99.99
2019-05-01T14:19:10.814Z,99.99
2019-05-01T14:20:12.804Z,99.99
2019-05-01T14:21:10.763Z,99.99
2019-05-01T14:22:18.427Z,99.99
2019-05-01T14:23:10.708Z,99.99
2019-05-01T14:24:11.680Z,99.99
2019-05-01T14:25:10.650Z,99.99
2019-05-01T14:26:11.632Z,99.99
2019-05-01T14:27:10.603Z,99.96
2019-05-01T14:28:10.580Z,99.99
2019-05-01T14:29:10.615Z,99.99
2019-05-01T14:30:10.516Z,99.99
2019-05-01T14:31:10.517Z,99.99
2019-05-01T14:32:10.476Z,99.99
2019-05-01T14:33:10.462Z,99.99
2019-05-01T14:34:10.432Z,98.43
2019-05-01T14:35:10.374Z,99.87
2019-05-01T14:36:10.377Z,99.99
2019-05-01T14:37:10.309Z,99.99
2019-05-01T14:38:10.282Z,99.99